sensor_id;sensor_type;location;lat;lon;timestamp;P1;durP1;ratioP1;P2;durP2;ratioP2
77276;SDS011;66330;52.166;9.978;2023-11-19T10:48:12;4.93;;;2.00;;
77276;SDS011;66330;52.166;9.978;2023-11-19T10:50:38;5.37;;;2.07;;
77276;SDS011;66330;52.166;9.978;2023-11-19T10:53:06;2.60;;;2.20;;
77276;SDS011;66330;52.166;9.978;2023-11-19T10:55:33;4.40;;;2.10;;
77276;SDS011;66330;52.166;9.978;2023-11-19T10:58:05;7.87;;;3.57;;
77276;SDS011;66330;52.166;9.978;2023-11-19T11:00:41;3.17;;;2.13;;
77276;SDS011;66330;52.166;9.978;2023-11-19T11:03:17;8.90;;;2.23;;
77276;SDS011;66330;52.166;9.978;2023-11-19T11:05:46;4.47;;;2.77;;
77276;SDS011;66330;52.166;9.978;2023-11-19T11:08:13;6.13;;;2.80;;
77276;SDS011;66330;52.166;9.978;2023-11-19T11:10:52;11.57;;;3.03;;
77276;SDS011;66330;52.166;9.978;2023-11-19T11:13:22;6.53;;;2.90;;
77276;SDS011;66330;52.166;9.978;2023-11-19T11:15:49;5.47;;;2.80;;
77276;SDS011;66330;52.166;9.978;2023-11-19T11:18:16;5.00;;;2.13;;
77276;SDS011;66330;52.166;9.978;2023-11-19T11:20:45;4.30;;;2.40;;
77276;SDS011;66330;52.166;9.978;2023-11-19T11:36:31;7.87;;;2.30;;
77276;SDS011;66330;52.166;9.978;2023-11-19T11:39:11;3.27;;;1.53;;
77276;SDS011;66330;52.166;9.978;2023-11-19T11:41:38;5.00;;;2.27;;
77276;SDS011;66330;52.166;9.978;2023-11-19T11:44:03;5.43;;;2.53;;
77276;SDS011;66330;52.166;9.978;2023-11-19T11:49:07;4.83;;;1.90;;
77276;SDS011;66330;52.166;9.978;2023-11-19T11:54:10;3.30;;;1.70;;
77276;SDS011;66330;52.166;9.978;2023-11-19T11:57:01;6.83;;;3.13;;
77276;SDS011;66330;52.166;9.978;2023-11-19T11:59:31;5.50;;;2.50;;
77276;SDS011;66330;52.166;9.978;2023-11-19T12:02:03;5.80;;;1.93;;
77276;SDS011;66330;52.166;9.978;2023-11-19T12:04:29;5.87;;;2.47;;
77276;SDS011;66330;52.166;9.978;2023-11-19T12:09:31;4.27;;;2.07;;
77276;SDS011;66330;52.166;9.978;2023-11-19T12:20:04;7.93;;;3.23;;
77276;SDS011;66330;52.166;9.978;2023-11-19T12:22:33;6.10;;;2.20;;
77276;SDS011;66330;52.166;9.978;2023-11-19T12:25:02;5.53;;;1.77;;
77276;SDS011;66330;52.166;9.978;2023-11-19T12:27:29;6.33;;;2.10;;
77276;SDS011;66330;52.166;9.978;2023-11-19T12:29:55;3.63;;;1.80;;
77276;SDS011;66330;52.166;9.978;2023-11-19T12:32:22;5.80;;;1.90;;
77276;SDS011;66330;52.166;9.978;2023-11-19T12:34:49;5.10;;;2.00;;
77276;SDS011;66330;52.166;9.978;2023-11-19T12:37:15;6.23;;;2.60;;
77276;SDS011;66330;52.166;9.978;2023-11-19T12:39:41;5.63;;;2.40;;
77276;SDS011;66330;52.166;9.978;2023-11-19T12:42:06;3.50;;;2.53;;
77276;SDS011;66330;52.166;9.978;2023-11-19T12:44:32;4.40;;;3.10;;
77276;SDS011;66330;52.166;9.978;2023-11-19T12:47:02;3.13;;;1.90;;
77276;SDS011;66330;52.166;9.978;2023-11-19T12:49:29;4.70;;;1.73;;
77276;SDS011;66330;52.166;9.978;2023-11-19T12:51:55;7.23;;;2.23;;
77276;SDS011;66330;52.166;9.978;2023-11-19T12:54:31;9.83;;;3.67;;
77276;SDS011;66330;52.166;9.978;2023-11-19T12:56:57;5.53;;;1.83;;
77276;SDS011;66330;52.166;9.978;2023-11-19T12:59:23;3.37;;;1.97;;
77276;SDS011;66330;52.166;9.978;2023-11-19T13:01:56;5.60;;;2.20;;
77276;SDS011;66330;52.166;9.978;2023-11-19T13:04:28;6.33;;;1.80;;
77276;SDS011;66330;52.166;9.978;2023-11-19T13:06:56;4.47;;;1.90;;
77276;SDS011;66330;52.166;9.978;2023-11-19T13:09:26;4.23;;;1.60;;
77276;SDS011;66330;52.166;9.978;2023-11-19T13:11:53;7.00;;;2.50;;
77276;SDS011;66330;52.166;9.978;2023-11-19T13:14:19;2.93;;;1.80;;
77276;SDS011;66330;52.166;9.978;2023-11-19T13:16:45;5.03;;;2.50;;
77276;SDS011;66330;52.166;9.978;2023-11-19T13:19:12;4.00;;;1.97;;
77276;SDS011;66330;52.166;9.978;2023-11-19T13:21:38;5.60;;;2.10;;
77276;SDS011;66330;52.166;9.978;2023-11-19T13:24:05;3.30;;;2.10;;
77276;SDS011;66330;52.166;9.978;2023-11-19T13:26:31;5.90;;;1.80;;
77276;SDS011;66330;52.166;9.978;2023-11-19T13:28:57;5.10;;;2.40;;
77276;SDS011;66330;52.166;9.978;2023-11-19T13:31:22;3.47;;;2.20;;
77276;SDS011;66330;52.166;9.978;2023-11-19T13:33:48;5.00;;;3.50;;
77276;SDS011;66330;52.166;9.978;2023-11-19T13:36:14;3.33;;;1.80;;
77276;SDS011;66330;52.166;9.978;2023-11-19T13:38:39;5.03;;;2.83;;
77276;SDS011;66330;52.166;9.978;2023-11-19T13:41:07;7.90;;;2.43;;
77276;SDS011;66330;52.166;9.978;2023-11-19T13:43:35;4.33;;;2.33;;
77276;SDS011;66330;52.166;9.978;2023-11-19T13:46:00;6.43;;;2.60;;
77276;SDS011;66330;52.166;9.978;2023-11-19T13:48:26;6.83;;;2.60;;
77276;SDS011;66330;52.166;9.978;2023-11-19T13:50:53;4.10;;;2.40;;
77276;SDS011;66330;52.166;9.978;2023-11-19T13:53:20;5.20;;;2.40;;
77276;SDS011;66330;52.166;9.978;2023-11-19T13:55:45;8.07;;;3.53;;
77276;SDS011;66330;52.166;9.978;2023-11-19T13:58:12;4.87;;;2.27;;
77276;SDS011;66330;52.166;9.978;2023-11-19T14:00:38;2.90;;;2.20;;
77276;SDS011;66330;52.166;9.978;2023-11-19T14:03:03;4.87;;;2.20;;
77276;SDS011;66330;52.166;9.978;2023-11-19T14:05:30;6.50;;;4.27;;
77276;SDS011;66330;52.166;9.978;2023-11-19T14:07:55;5.10;;;2.63;;
77276;SDS011;66330;52.166;9.978;2023-11-19T14:10:21;4.03;;;2.40;;
77276;SDS011;66330;52.166;9.978;2023-11-19T14:12:47;2.97;;;2.67;;
77276;SDS011;66330;52.166;9.978;2023-11-19T14:15:15;7.27;;;2.60;;
77276;SDS011;66330;52.166;9.978;2023-11-19T14:17:42;4.87;;;2.37;;
77276;SDS011;66330;52.166;9.978;2023-11-19T14:20:08;4.10;;;2.27;;
77276;SDS011;66330;52.166;9.978;2023-11-19T14:22:42;8.20;;;2.50;;
77276;SDS011;66330;52.166;9.978;2023-11-19T14:25:09;5.90;;;2.67;;
77276;SDS011;66330;52.166;9.978;2023-11-19T14:27:36;4.53;;;2.20;;
77276;SDS011;66330;52.166;9.978;2023-11-19T14:30:04;4.30;;;2.87;;
77276;SDS011;66330;52.166;9.978;2023-11-19T14:32:30;12.73;;;2.50;;
77276;SDS011;66330;52.166;9.978;2023-11-19T14:34:56;5.60;;;2.40;;
77276;SDS011;66330;52.166;9.978;2023-11-19T14:37:22;2.70;;;2.30;;
77276;SDS011;66330;52.166;9.978;2023-11-19T14:39:48;2.17;;;1.93;;
77276;SDS011;66330;52.166;9.978;2023-11-19T14:42:15;8.10;;;2.57;;
77276;SDS011;66330;52.166;9.978;2023-11-19T14:44:41;4.33;;;1.80;;
77276;SDS011;66330;52.166;9.978;2023-11-19T14:47:07;4.23;;;2.23;;
77276;SDS011;66330;52.166;9.978;2023-11-19T14:49:34;5.67;;;2.20;;
77276;SDS011;66330;52.166;9.978;2023-11-19T14:52:01;3.20;;;1.83;;
77276;SDS011;66330;52.166;9.978;2023-11-19T14:54:28;2.77;;;2.03;;
77276;SDS011;66330;52.166;9.978;2023-11-19T14:56:53;5.20;;;2.10;;
77276;SDS011;66330;52.166;9.978;2023-11-19T14:59:19;6.67;;;3.10;;
77276;SDS011;66330;52.166;9.978;2023-11-19T15:01:45;3.80;;;2.87;;
77276;SDS011;66330;52.166;9.978;2023-11-19T15:04:11;5.07;;;1.97;;
77276;SDS011;66330;52.166;9.978;2023-11-19T15:06:37;5.20;;;2.30;;
77276;SDS011;66330;52.166;9.978;2023-11-19T15:09:03;5.60;;;2.63;;
77276;SDS011;66330;52.166;9.978;2023-11-19T15:11:29;3.10;;;1.80;;
77276;SDS011;66330;52.166;9.978;2023-11-19T15:13:55;9.17;;;3.37;;
77276;SDS011;66330;52.166;9.978;2023-11-19T15:16:21;4.70;;;2.57;;
77276;SDS011;66330;52.166;9.978;2023-11-19T15:18:56;5.13;;;3.40;;
77276;SDS011;66330;52.166;9.978;2023-11-19T15:21:24;7.30;;;2.40;;
77276;SDS011;66330;52.166;9.978;2023-11-19T15:23:51;3.80;;;1.90;;
77276;SDS011;66330;52.166;9.978;2023-11-19T15:26:17;3.57;;;1.97;;
77276;SDS011;66330;52.166;9.978;2023-11-19T15:28:42;3.60;;;2.17;;
77276;SDS011;66330;52.166;9.978;2023-11-19T15:31:08;5.03;;;2.17;;
77276;SDS011;66330;52.166;9.978;2023-11-19T15:33:35;4.87;;;1.90;;
77276;SDS011;66330;52.166;9.978;2023-11-19T15:36:00;3.03;;;1.60;;
77276;SDS011;66330;52.166;9.978;2023-11-19T15:38:28;3.70;;;1.97;;
77276;SDS011;66330;52.166;9.978;2023-11-19T15:40:54;4.90;;;1.93;;
77276;SDS011;66330;52.166;9.978;2023-11-19T15:43:20;5.23;;;2.33;;
77276;SDS011;66330;52.166;9.978;2023-11-19T15:45:45;5.67;;;2.67;;
77276;SDS011;66330;52.166;9.978;2023-11-19T15:48:11;4.93;;;2.27;;
77276;SDS011;66330;52.166;9.978;2023-11-19T15:50:38;4.30;;;2.00;;
77276;SDS011;66330;52.166;9.978;2023-11-19T15:53:04;3.60;;;2.17;;
77276;SDS011;66330;52.166;9.978;2023-11-19T15:55:30;7.07;;;2.10;;
77276;SDS011;66330;52.166;9.978;2023-11-19T15:57:56;5.90;;;2.00;;
77276;SDS011;66330;52.166;9.978;2023-11-19T16:00:21;6.83;;;2.67;;
77276;SDS011;66330;52.166;9.978;2023-11-19T16:02:50;3.73;;;1.80;;
77276;SDS011;66330;52.166;9.978;2023-11-19T16:05:16;3.23;;;1.80;;
77276;SDS011;66330;52.166;9.978;2023-11-19T16:07:41;4.87;;;2.33;;
77276;SDS011;66330;52.166;9.978;2023-11-19T16:10:07;9.47;;;2.27;;
77276;SDS011;66330;52.166;9.978;2023-11-19T16:12:34;4.17;;;1.50;;
77276;SDS011;66330;52.166;9.978;2023-11-19T16:15:00;6.90;;;2.83;;
77276;SDS011;66330;52.166;9.978;2023-11-19T16:17:26;4.10;;;1.80;;
77276;SDS011;66330;52.166;9.978;2023-11-19T16:19:54;2.03;;;1.43;;
77276;SDS011;66330;52.166;9.978;2023-11-19T16:22:20;5.87;;;2.13;;
77276;SDS011;66330;52.166;9.978;2023-11-19T16:24:45;2.20;;;1.67;;
77276;SDS011;66330;52.166;9.978;2023-11-19T16:27:13;4.23;;;1.93;;
77276;SDS011;66330;52.166;9.978;2023-11-19T16:29:39;5.80;;;2.10;;
77276;SDS011;66330;52.166;9.978;2023-11-19T16:32:05;6.30;;;2.47;;
77276;SDS011;66330;52.166;9.978;2023-11-19T16:34:31;2.30;;;2.10;;
77276;SDS011;66330;52.166;9.978;2023-11-19T16:37:02;3.77;;;1.83;;
77276;SDS011;66330;52.166;9.978;2023-11-19T16:39:31;2.87;;;2.23;;
77276;SDS011;66330;52.166;9.978;2023-11-19T16:41:56;6.00;;;2.10;;
77276;SDS011;66330;52.166;9.978;2023-11-19T16:44:22;3.93;;;2.60;;
77276;SDS011;66330;52.166;9.978;2023-11-19T16:46:48;4.90;;;2.10;;
77276;SDS011;66330;52.166;9.978;2023-11-19T16:49:13;2.93;;;2.00;;
77276;SDS011;66330;52.166;9.978;2023-11-19T16:51:39;2.60;;;1.60;;
77276;SDS011;66330;52.166;9.978;2023-11-19T16:54:04;4.33;;;2.23;;
77276;SDS011;66330;52.166;9.978;2023-11-19T16:56:30;7.90;;;2.43;;
77276;SDS011;66330;52.166;9.978;2023-11-19T16:58:59;3.13;;;1.83;;
77276;SDS011;66330;52.166;9.978;2023-11-19T17:01:25;3.13;;;1.87;;
77276;SDS011;66330;52.166;9.978;2023-11-19T17:03:50;5.57;;;2.20;;
77276;SDS011;66330;52.166;9.978;2023-11-19T17:06:16;4.40;;;2.13;;
77276;SDS011;66330;52.166;9.978;2023-11-19T17:08:42;5.33;;;2.17;;
77276;SDS011;66330;52.166;9.978;2023-11-19T17:11:08;3.10;;;1.80;;
77276;SDS011;66330;52.166;9.978;2023-11-19T17:13:34;3.90;;;2.33;;
77276;SDS011;66330;52.166;9.978;2023-11-19T17:16:00;4.20;;;1.80;;
77276;SDS011;66330;52.166;9.978;2023-11-19T17:18:26;4.27;;;2.30;;
77276;SDS011;66330;52.166;9.978;2023-11-19T17:20:51;4.07;;;1.83;;
77276;SDS011;66330;52.166;9.978;2023-11-19T17:23:19;5.13;;;2.23;;
77276;SDS011;66330;52.166;9.978;2023-11-19T17:25:45;3.77;;;2.03;;
77276;SDS011;66330;52.166;9.978;2023-11-19T17:28:10;2.60;;;1.73;;
77276;SDS011;66330;52.166;9.978;2023-11-19T17:30:36;5.67;;;2.33;;
77276;SDS011;66330;52.166;9.978;2023-11-19T17:33:03;2.83;;;2.13;;
77276;SDS011;66330;52.166;9.978;2023-11-19T17:35:30;4.63;;;2.80;;
77276;SDS011;66330;52.166;9.978;2023-11-19T17:37:59;3.10;;;1.40;;
77276;SDS011;66330;52.166;9.978;2023-11-19T17:40:24;2.83;;;1.47;;
77276;SDS011;66330;52.166;9.978;2023-11-19T17:42:53;4.00;;;1.67;;
77276;SDS011;66330;52.166;9.978;2023-11-19T17:45:19;2.30;;;1.90;;
77276;SDS011;66330;52.166;9.978;2023-11-19T17:47:44;2.53;;;1.50;;
77276;SDS011;66330;52.166;9.978;2023-11-19T17:50:10;4.77;;;1.30;;
77276;SDS011;66330;52.166;9.978;2023-11-19T17:52:36;3.13;;;1.70;;
77276;SDS011;66330;52.166;9.978;2023-11-19T17:55:02;4.53;;;1.70;;
77276;SDS011;66330;52.166;9.978;2023-11-19T17:57:29;2.50;;;1.80;;
77276;SDS011;66330;52.166;9.978;2023-11-19T17:59:57;4.10;;;1.50;;
77276;SDS011;66330;52.166;9.978;2023-11-19T18:02:23;5.17;;;1.40;;
77276;SDS011;66330;52.166;9.978;2023-11-19T18:04:49;5.00;;;1.93;;
77276;SDS011;66330;52.166;9.978;2023-11-19T18:07:15;3.13;;;1.50;;
77276;SDS011;66330;52.166;9.978;2023-11-19T18:09:45;3.00;;;1.50;;
77276;SDS011;66330;52.166;9.978;2023-11-19T18:12:10;2.50;;;1.53;;
77276;SDS011;66330;52.166;9.978;2023-11-19T18:14:37;6.50;;;2.37;;
77276;SDS011;66330;52.166;9.978;2023-11-19T18:17:03;10.50;;;2.30;;
77276;SDS011;66330;52.166;9.978;2023-11-19T18:19:29;1.97;;;1.40;;
77276;SDS011;66330;52.166;9.978;2023-11-19T18:21:56;4.00;;;1.80;;
77276;SDS011;66330;52.166;9.978;2023-11-19T18:24:23;3.00;;;1.53;;
77276;SDS011;66330;52.166;9.978;2023-11-19T18:26:49;4.50;;;2.10;;
77276;SDS011;66330;52.166;9.978;2023-11-19T18:29:15;3.57;;;1.93;;
77276;SDS011;66330;52.166;9.978;2023-11-19T18:31:42;4.43;;;1.60;;
77276;SDS011;66330;52.166;9.978;2023-11-19T18:34:10;3.07;;;2.03;;
77276;SDS011;66330;52.166;9.978;2023-11-19T18:36:36;5.47;;;2.27;;
77276;SDS011;66330;52.166;9.978;2023-11-19T18:39:03;2.93;;;2.33;;
77276;SDS011;66330;52.166;9.978;2023-11-19T18:41:29;2.30;;;2.20;;
77276;SDS011;66330;52.166;9.978;2023-11-19T18:43:55;3.23;;;1.73;;
77276;SDS011;66330;52.166;9.978;2023-11-19T18:46:21;4.43;;;2.10;;
77276;SDS011;66330;52.166;9.978;2023-11-19T18:48:47;4.10;;;1.70;;
77276;SDS011;66330;52.166;9.978;2023-11-19T18:51:12;3.00;;;2.00;;
77276;SDS011;66330;52.166;9.978;2023-11-19T18:53:39;4.73;;;1.87;;
77276;SDS011;66330;52.166;9.978;2023-11-19T18:56:07;4.00;;;2.30;;
77276;SDS011;66330;52.166;9.978;2023-11-19T18:58:33;7.13;;;2.10;;
77276;SDS011;66330;52.166;9.978;2023-11-19T19:00:59;4.17;;;2.00;;
77276;SDS011;66330;52.166;9.978;2023-11-19T19:03:25;4.37;;;2.60;;
77276;SDS011;66330;52.166;9.978;2023-11-19T19:05:55;5.67;;;2.10;;
77276;SDS011;66330;52.166;9.978;2023-11-19T19:08:24;5.07;;;1.80;;
77276;SDS011;66330;52.166;9.978;2023-11-19T19:10:50;3.00;;;1.83;;
77276;SDS011;66330;52.166;9.978;2023-11-19T19:13:15;3.93;;;2.20;;
77276;SDS011;66330;52.166;9.978;2023-11-19T19:15:41;5.50;;;1.77;;
77276;SDS011;66330;52.166;9.978;2023-11-19T19:18:06;5.93;;;2.17;;
77276;SDS011;66330;52.166;9.978;2023-11-19T19:20:32;5.30;;;1.93;;
77276;SDS011;66330;52.166;9.978;2023-11-19T19:22:58;5.13;;;1.97;;
77276;SDS011;66330;52.166;9.978;2023-11-19T19:25:24;2.60;;;1.83;;
77276;SDS011;66330;52.166;9.978;2023-11-19T19:27:52;3.93;;;1.77;;
77276;SDS011;66330;52.166;9.978;2023-11-19T19:30:19;4.43;;;1.37;;
77276;SDS011;66330;52.166;9.978;2023-11-19T19:32:45;3.03;;;1.50;;
77276;SDS011;66330;52.166;9.978;2023-11-19T19:35:11;9.13;;;1.77;;
77276;SDS011;66330;52.166;9.978;2023-11-19T19:37:37;2.30;;;1.43;;
77276;SDS011;66330;52.166;9.978;2023-11-19T19:40:03;5.63;;;1.60;;
77276;SDS011;66330;52.166;9.978;2023-11-19T19:42:29;2.00;;;1.17;;
77276;SDS011;66330;52.166;9.978;2023-11-19T19:44:55;4.40;;;1.70;;
77276;SDS011;66330;52.166;9.978;2023-11-19T19:47:20;2.43;;;1.10;;
77276;SDS011;66330;52.166;9.978;2023-11-19T19:49:46;2.63;;;1.77;;
77276;SDS011;66330;52.166;9.978;2023-11-19T19:52:12;3.87;;;1.83;;
77276;SDS011;66330;52.166;9.978;2023-11-19T19:54:37;1.83;;;1.63;;
77276;SDS011;66330;52.166;9.978;2023-11-19T19:57:03;3.50;;;1.93;;
77276;SDS011;66330;52.166;9.978;2023-11-19T19:59:29;2.30;;;1.83;;
77276;SDS011;66330;52.166;9.978;2023-11-19T20:01:54;1.10;;;1.03;;
77276;SDS011;66330;52.166;9.978;2023-11-19T20:04:20;2.90;;;1.70;;
77276;SDS011;66330;52.166;9.978;2023-11-19T20:06:46;3.13;;;1.60;;
77276;SDS011;66330;52.166;9.978;2023-11-19T20:09:13;2.17;;;1.77;;
77276;SDS011;66330;52.166;9.978;2023-11-19T20:11:39;1.93;;;1.50;;
77276;SDS011;66330;52.166;9.978;2023-11-19T20:14:05;2.93;;;1.87;;
77276;SDS011;66330;52.166;9.978;2023-11-19T20:16:31;4.10;;;1.90;;
77276;SDS011;66330;52.166;9.978;2023-11-19T20:18:57;4.07;;;1.40;;
77276;SDS011;66330;52.166;9.978;2023-11-19T20:21:23;3.30;;;1.80;;
77276;SDS011;66330;52.166;9.978;2023-11-19T20:23:50;2.20;;;1.73;;
77276;SDS011;66330;52.166;9.978;2023-11-19T20:26:15;2.00;;;1.50;;
77276;SDS011;66330;52.166;9.978;2023-11-19T20:28:44;1.63;;;1.53;;
77276;SDS011;66330;52.166;9.978;2023-11-19T20:31:10;5.93;;;2.30;;
77276;SDS011;66330;52.166;9.978;2023-11-19T20:33:37;2.23;;;1.60;;
77276;SDS011;66330;52.166;9.978;2023-11-19T20:36:02;3.00;;;1.30;;
77276;SDS011;66330;52.166;9.978;2023-11-19T20:38:30;1.40;;;1.23;;
77276;SDS011;66330;52.166;9.978;2023-11-19T20:40:56;3.47;;;1.77;;
77276;SDS011;66330;52.166;9.978;2023-11-19T20:43:22;1.40;;;1.30;;
77276;SDS011;66330;52.166;9.978;2023-11-19T20:45:48;1.80;;;1.60;;
77276;SDS011;66330;52.166;9.978;2023-11-19T20:48:13;2.60;;;1.13;;
77276;SDS011;66330;52.166;9.978;2023-11-19T20:50:39;3.60;;;1.83;;
77276;SDS011;66330;52.166;9.978;2023-11-19T20:53:05;3.33;;;1.97;;
77276;SDS011;66330;52.166;9.978;2023-11-19T20:55:33;1.87;;;1.70;;
77276;SDS011;66330;52.166;9.978;2023-11-19T20:57:59;3.83;;;1.43;;
77276;SDS011;66330;52.166;9.978;2023-11-19T21:00:25;2.27;;;1.53;;
77276;SDS011;66330;52.166;9.978;2023-11-19T21:02:50;2.13;;;0.90;;
77276;SDS011;66330;52.166;9.978;2023-11-19T21:05:18;5.20;;;1.83;;
77276;SDS011;66330;52.166;9.978;2023-11-19T21:07:44;1.47;;;1.30;;
77276;SDS011;66330;52.166;9.978;2023-11-19T21:10:10;2.43;;;1.50;;
77276;SDS011;66330;52.166;9.978;2023-11-19T21:12:40;2.40;;;1.43;;
77276;SDS011;66330;52.166;9.978;2023-11-19T21:15:06;1.93;;;1.27;;
77276;SDS011;66330;52.166;9.978;2023-11-19T21:17:32;3.77;;;1.40;;
77276;SDS011;66330;52.166;9.978;2023-11-19T21:19:58;2.73;;;1.10;;
77276;SDS011;66330;52.166;9.978;2023-11-19T21:22:24;5.40;;;1.37;;
77276;SDS011;66330;52.166;9.978;2023-11-19T21:24:49;1.57;;;1.47;;
77276;SDS011;66330;52.166;9.978;2023-11-19T21:27:16;1.57;;;1.23;;
77276;SDS011;66330;52.166;9.978;2023-11-19T21:29:43;1.73;;;1.30;;
77276;SDS011;66330;52.166;9.978;2023-11-19T21:32:10;1.20;;;1.10;;
77276;SDS011;66330;52.166;9.978;2023-11-19T21:34:36;1.87;;;1.70;;
77276;SDS011;66330;52.166;9.978;2023-11-19T21:37:02;1.10;;;0.97;;
77276;SDS011;66330;52.166;9.978;2023-11-19T21:39:29;1.83;;;1.17;;
77276;SDS011;66330;52.166;9.978;2023-11-19T21:41:54;1.27;;;0.90;;
77276;SDS011;66330;52.166;9.978;2023-11-19T21:44:21;1.57;;;0.67;;
77276;SDS011;66330;52.166;9.978;2023-11-19T21:46:47;3.27;;;1.30;;
77276;SDS011;66330;52.166;9.978;2023-11-19T21:49:13;1.20;;;1.07;;
77276;SDS011;66330;52.166;9.978;2023-11-19T21:51:41;1.17;;;1.07;;
77276;SDS011;66330;52.166;9.978;2023-11-19T21:54:07;1.57;;;0.90;;
77276;SDS011;66330;52.166;9.978;2023-11-19T21:56:33;0.60;;;0.60;;
77276;SDS011;66330;52.166;9.978;2023-11-19T21:59:00;0.77;;;0.77;;
77276;SDS011;66330;52.166;9.978;2023-11-19T22:01:26;2.20;;;0.90;;
77276;SDS011;66330;52.166;9.978;2023-11-19T22:03:52;1.03;;;0.70;;
77276;SDS011;66330;52.166;9.978;2023-11-19T22:06:17;0.60;;;0.60;;
77276;SDS011;66330;52.166;9.978;2023-11-19T22:08:44;1.13;;;1.00;;
77276;SDS011;66330;52.166;9.978;2023-11-19T22:11:10;1.23;;;0.70;;
77276;SDS011;66330;52.166;9.978;2023-11-19T22:13:36;0.77;;;0.60;;
77276;SDS011;66330;52.166;9.978;2023-11-19T22:16:04;1.20;;;0.80;;
77276;SDS011;66330;52.166;9.978;2023-11-19T22:18:29;0.90;;;0.63;;
77276;SDS011;66330;52.166;9.978;2023-11-19T22:20:55;1.00;;;0.73;;
77276;SDS011;66330;52.166;9.978;2023-11-19T22:23:21;0.77;;;0.77;;
77276;SDS011;66330;52.166;9.978;2023-11-19T22:25:46;1.10;;;0.80;;
77276;SDS011;66330;52.166;9.978;2023-11-19T22:28:12;1.10;;;1.00;;
77276;SDS011;66330;52.166;9.978;2023-11-19T22:30:39;0.70;;;0.67;;
77276;SDS011;66330;52.166;9.978;2023-11-19T22:33:06;0.70;;;0.47;;
77276;SDS011;66330;52.166;9.978;2023-11-19T22:35:32;0.73;;;0.60;;
77276;SDS011;66330;52.166;9.978;2023-11-19T22:37:58;1.37;;;0.53;;
77276;SDS011;66330;52.166;9.978;2023-11-19T22:40:24;0.50;;;0.40;;
77276;SDS011;66330;52.166;9.978;2023-11-19T22:42:50;0.83;;;0.63;;
77276;SDS011;66330;52.166;9.978;2023-11-19T22:45:15;0.57;;;0.47;;
77276;SDS011;66330;52.166;9.978;2023-11-19T22:47:42;0.73;;;0.50;;
77276;SDS011;66330;52.166;9.978;2023-11-19T22:50:07;1.70;;;0.60;;
77276;SDS011;66330;52.166;9.978;2023-11-19T22:52:34;0.53;;;0.47;;
77276;SDS011;66330;52.166;9.978;2023-11-19T22:55:01;0.67;;;0.57;;
77276;SDS011;66330;52.166;9.978;2023-11-19T22:57:26;0.70;;;0.40;;
77276;SDS011;66330;52.166;9.978;2023-11-19T22:59:52;1.33;;;0.60;;
77276;SDS011;66330;52.166;9.978;2023-11-19T23:02:18;0.90;;;0.47;;
77276;SDS011;66330;52.166;9.978;2023-11-19T23:04:44;0.50;;;0.40;;
77276;SDS011;66330;52.166;9.978;2023-11-19T23:07:09;0.70;;;0.40;;
77276;SDS011;66330;52.166;9.978;2023-11-19T23:09:35;0.87;;;0.53;;
77276;SDS011;66330;52.166;9.978;2023-11-19T23:12:00;0.50;;;0.43;;
77276;SDS011;66330;52.166;9.978;2023-11-19T23:14:26;1.07;;;0.50;;
77276;SDS011;66330;52.166;9.978;2023-11-19T23:16:52;0.60;;;0.50;;
77276;SDS011;66330;52.166;9.978;2023-11-19T23:19:18;0.40;;;0.30;;
77276;SDS011;66330;52.166;9.978;2023-11-19T23:21:44;0.70;;;0.40;;
77276;SDS011;66330;52.166;9.978;2023-11-19T23:24:10;0.47;;;0.40;;
77276;SDS011;66330;52.166;9.978;2023-11-19T23:26:35;0.53;;;0.37;;
77276;SDS011;66330;52.166;9.978;2023-11-19T23:29:01;0.87;;;0.57;;
77276;SDS011;66330;52.166;9.978;2023-11-19T23:31:30;0.50;;;0.40;;
77276;SDS011;66330;52.166;9.978;2023-11-19T23:33:55;0.40;;;0.40;;
77276;SDS011;66330;52.166;9.978;2023-11-19T23:36:21;0.40;;;0.40;;
77276;SDS011;66330;52.166;9.978;2023-11-19T23:38:46;0.50;;;0.50;;
77276;SDS011;66330;52.166;9.978;2023-11-19T23:41:12;4.03;;;0.60;;
77276;SDS011;66330;52.166;9.978;2023-11-19T23:43:38;1.20;;;0.40;;
77276;SDS011;66330;52.166;9.978;2023-11-19T23:46:04;0.40;;;0.40;;
77276;SDS011;66330;52.166;9.978;2023-11-19T23:48:30;0.57;;;0.47;;
77276;SDS011;66330;52.166;9.978;2023-11-19T23:50:56;0.70;;;0.30;;
77276;SDS011;66330;52.166;9.978;2023-11-19T23:53:22;0.70;;;0.50;;
77276;SDS011;66330;52.166;9.978;2023-11-19T23:55:47;0.57;;;0.50;;
77276;SDS011;66330;52.166;9.978;2023-11-19T23:58:13;0.63;;;0.40;;
